Time;durP1;ratioP1;P1;durP2;ratioP2;P2;SDS_P1;SDS_P2;PMS_P1;PMS_P2;Temp;Humidity;BMP_temperature;BMP_pressure;BME280_temperature;BME280_humidity;BME280_pressure;Samples;Min_cycle;Max_cycle;Signal;HPM_P1;HPM_P2
2023/03/19 00:00:00;;;;;;;3.37;1.43;;;;;;;;;;5034697;28;20035;-64
2023/03/19 00:02:27;;;;;;;2.10;1.20;;;;;;;;;;5034490;28;20039;-65
2023/03/19 00:04:53;;;;;;;3.07;1.37;;;;;;;;;;5034749;28;20033;-66
2023/03/19 00:07:20;;;;;;;4.13;1.77;;;;;;;;;;5034564;28;20432;-65
2023/03/19 00:09:47;;;;;;;3.90;1.70;;;;;;;;;;5030730;28;20027;-65
2023/03/19 00:12:14;;;;;;;2.27;1.47;;;;;;;;;;5029963;28;20051;-67
2023/03/19 00:14:40;;;;;;;3.17;1.93;;;;;;;;;;5028821;28;20084;-66
2023/03/19 00:17:07;;;;;;;4.63;1.73;;;;;;;;;;5029363;28;21533;-66
2023/03/19 00:19:37;;;;;;;2.33;1.30;;;;;;;;;;5032871;28;20508;-67
2023/03/19 00:22:03;;;;;;;3.67;2.33;;;;;;;;;;5034561;28;20021;-67
2023/03/19 00:24:30;;;;;;;4.47;1.60;;;;;;;;;;5034076;28;20029;-67
2023/03/19 00:26:57;;;;;;;3.60;2.20;;;;;;;;;;5032217;28;20040;-68
2023/03/19 00:29:24;;;;;;;3.40;2.37;;;;;;;;;;5025034;28;20028;-67
2023/03/19 00:31:51;;;;;;;4.67;2.30;;;;;;;;;;5030615;28;20542;-66
2023/03/19 00:34:18;;;;;;;3.50;2.30;;;;;;;;;;5029407;28;20025;-68
2023/03/19 00:36:45;;;;;;;5.83;2.43;;;;;;;;;;5029263;28;20480;-66
2023/03/19 00:39:12;;;;;;;5.77;2.17;;;;;;;;;;5028851;28;20030;-67
2023/03/19 00:41:39;;;;;;;3.27;2.30;;;;;;;;;;5031340;28;20029;-67
2023/03/19 00:44:06;;;;;;;4.23;2.43;;;;;;;;;;5034281;28;20024;-66
2023/03/19 00:46:33;;;;;;;4.83;2.30;;;;;;;;;;5034156;28;20045;-66
2023/03/19 00:49:00;;;;;;;6.97;3.03;;;;;;;;;;5034129;28;20104;-66
2023/03/19 00:51:27;;;;;;;2.83;2.27;;;;;;;;;;5034201;28;20028;-66
2023/03/19 00:53:53;;;;;;;4.97;2.73;;;;;;;;;;5031084;28;20022;-66
2023/03/19 00:56:20;;;;;;;3.13;2.17;;;;;;;;;;5028608;28;20022;-65
2023/03/19 00:58:47;;;;;;;3.23;2.17;;;;;;;;;;5028760;28;20061;-66
2023/03/19 01:01:15;;;;;;;4.50;2.80;;;;;;;;;;5028656;28;20064;-67
2023/03/19 01:03:42;;;;;;;2.93;1.83;;;;;;;;;;5031182;28;20065;-68
2023/03/19 01:06:09;;;;;;;2.87;1.73;;;;;;;;;;5033893;28;20036;-65
2023/03/19 01:08:35;;;;;;;3.60;2.40;;;;;;;;;;5033977;28;20030;-65
2023/03/19 01:11:10;;;;;;;2.47;1.67;;;;;;;;;;5033971;28;20029;-66
2023/03/19 01:13:37;;;;;;;4.75;2.63;;;;;;;;;;5032944;28;20021;-67
2023/03/19 01:16:04;;;;;;;7.50;2.53;;;;;;;;;;5029220;28;20057;-66
2023/03/19 01:18:31;;;;;;;3.17;2.20;;;;;;;;;;5022544;28;20482;-65
2023/03/19 01:20:58;;;;;;;3.43;2.53;;;;;;;;;;5028377;28;20025;-66
2023/03/19 01:23:25;;;;;;;4.53;2.23;;;;;;;;;;5028761;28;20021;-65
2023/03/19 01:25:52;;;;;;;3.83;2.40;;;;;;;;;;5030228;28;20025;-66
2023/03/19 01:28:18;;;;;;;2.03;1.40;;;;;;;;;;5033769;28;20025;-66
2023/03/19 01:30:45;;;;;;;2.20;1.70;;;;;;;;;;5033389;28;20104;-66
2023/03/19 01:33:12;;;;;;;2.60;1.67;;;;;;;;;;5033289;28;20025;-66
2023/03/19 01:35:38;;;;;;;4.70;2.40;;;;;;;;;;5033165;28;20048;-65
2023/03/19 01:38:06;;;;;;;4.43;2.27;;;;;;;;;;5031680;28;20044;-67
2023/03/19 01:40:33;;;;;;;4.13;2.27;;;;;;;;;;5028272;28;20151;-67
2023/03/19 01:43:17;;;;;;;2.87;1.70;;;;;;;;;;5028510;28;20064;-67
2023/03/19 01:45:44;;;;;;;4.40;1.70;;;;;;;;;;5027967;28;20164;-67
2023/03/19 01:48:19;;;;;;;2.67;1.83;;;;;;;;;;5029076;28;20033;-67
2023/03/19 01:50:46;;;;;;;2.20;1.70;;;;;;;;;;5033212;28;20071;-67
2023/03/19 01:53:15;;;;;;;2.20;1.20;;;;;;;;;;5033306;28;20468;-67
2023/03/19 01:55:42;;;;;;;5.63;2.93;;;;;;;;;;5032957;28;20029;-66
2023/03/19 01:58:09;;;;;;;1.93;1.53;;;;;;;;;;5033041;28;20033;-68
2023/03/19 02:00:37;;;;;;;3.60;1.30;;;;;;;;;;5030344;28;20026;-68
2023/03/19 02:03:05;;;;;;;2.43;1.77;;;;;;;;;;5027489;28;20030;-68
2023/03/19 02:05:33;;;;;;;2.67;1.83;;;;;;;;;;5028253;28;20509;-67
2023/03/19 02:08:01;;;;;;;3.07;2.10;;;;;;;;;;5028067;28;20380;-68
2023/03/19 02:10:28;;;;;;;4.57;1.97;;;;;;;;;;5027399;28;20013;-69
2023/03/19 02:12:55;;;;;;;3.63;1.27;;;;;;;;;;5021764;28;20030;-67
2023/03/19 02:15:22;;;;;;;6.03;2.37;;;;;;;;;;5025369;28;20021;-66
2023/03/19 02:17:48;;;;;;;2.80;1.73;;;;;;;;;;5031476;28;20037;-67
2023/03/19 02:20:15;;;;;;;2.23;1.77;;;;;;;;;;5031530;28;20112;-66
2023/03/19 02:22:52;;;;;;;3.00;2.30;;;;;;;;;;5030438;28;20091;-66
2023/03/19 02:25:27;;;;;;;2.20;1.80;;;;;;;;;;5027367;28;20057;-68
2023/03/19 02:27:54;;;;;;;2.40;1.67;;;;;;;;;;5027146;28;20049;-67
2023/03/19 02:30:23;;;;;;;3.43;1.87;;;;;;;;;;5027191;28;20040;-66
2023/03/19 02:32:50;;;;;;;3.83;2.07;;;;;;;;;;5028546;28;20021;-68
2023/03/19 02:35:16;;;;;;;4.07;2.20;;;;;;;;;;5032168;28;20535;-65
2023/03/19 02:37:43;;;;;;;2.77;1.97;;;;;;;;;;5031575;28;20029;-65
2023/03/19 02:40:45;;;;;;;2.00;1.60;;;;;;;;;;5032321;28;20057;-66
2023/03/19 02:43:12;;;;;;;2.03;1.33;;;;;;;;;;4971021;28;20034;-66
2023/03/19 02:45:39;;;;;;;3.50;2.33;;;;;;;;;;5002453;28;20025;-66
2023/03/19 02:48:06;;;;;;;4.30;1.97;;;;;;;;;;5010957;28;20364;-66
2023/03/19 02:50:32;;;;;;;3.97;2.33;;;;;;;;;;5027016;28;20049;-66
2023/03/19 02:52:59;;;;;;;2.13;1.83;;;;;;;;;;5026833;28;20022;-66
2023/03/19 02:55:26;;;;;;;3.87;2.20;;;;;;;;;;5028297;28;20040;-65
2023/03/19 02:57:53;;;;;;;3.33;2.03;;;;;;;;;;5031866;28;20561;-68
2023/03/19 03:00:20;;;;;;;1.83;1.40;;;;;;;;;;5032131;28;20457;-66
2023/03/19 03:02:47;;;;;;;3.13;1.87;;;;;;;;;;5032428;28;20025;-65
2023/03/19 03:05:13;;;;;;;6.47;1.93;;;;;;;;;;5032108;28;20084;-66
2023/03/19 03:07:42;;;;;;;3.73;2.13;;;;;;;;;;5030330;28;20092;-66
2023/03/19 03:10:10;;;;;;;3.37;2.00;;;;;;;;;;5026799;28;20025;-66
2023/03/19 03:12:37;;;;;;;3.57;2.30;;;;;;;;;;5026908;28;20021;-67
2023/03/19 03:15:05;;;;;;;1.90;1.30;;;;;;;;;;5026947;28;20113;-65
2023/03/19 03:17:32;;;;;;;5.30;2.10;;;;;;;;;;5028049;28;20028;-66
2023/03/19 03:19:58;;;;;;;2.77;1.83;;;;;;;;;;5032085;28;20419;-65
2023/03/19 03:22:26;;;;;;;2.00;1.40;;;;;;;;;;5032090;28;20030;-65
2023/03/19 03:24:53;;;;;;;4.53;1.77;;;;;;;;;;5031957;28;20029;-66
2023/03/19 03:27:19;;;;;;;3.97;2.27;;;;;;;;;;5031606;28;20380;-65
2023/03/19 03:29:46;;;;;;;3.70;2.30;;;;;;;;;;5030780;28;20035;-65
2023/03/19 03:32:13;;;;;;;2.47;1.50;;;;;;;;;;5026668;28;20417;-65
2023/03/19 03:34:40;;;;;;;3.17;1.97;;;;;;;;;;5026925;28;20049;-65
2023/03/19 03:37:08;;;;;;;1.83;1.23;;;;;;;;;;5026992;28;20035;-65
2023/03/19 03:39:34;;;;;;;1.67;1.40;;;;;;;;;;5026756;28;20117;-67
2023/03/19 03:42:01;;;;;;;3.47;2.00;;;;;;;;;;5031944;28;20053;-65
2023/03/19 03:57:06;;;;;;;2.37;1.70;;;;;;;;;;5089184;27;2108127;-62
2023/03/19 03:59:33;;;;;;;9.70;2.10;;;;;;;;;;5127348;27;21236;-61
2023/03/19 04:02:00;;;;;;;4.13;1.77;;;;;;;;;;5145820;27;20019;-61
2023/03/19 04:04:27;;;;;;;3.70;2.10;;;;;;;;;;5127402;27;20050;-61
2023/03/19 04:06:53;;;;;;;2.13;1.47;;;;;;;;;;5124833;28;20027;-60
2023/03/19 04:09:20;;;;;;;2.50;2.00;;;;;;;;;;5130219;28;20473;-60
2023/03/19 04:11:47;;;;;;;2.27;1.70;;;;;;;;;;5130375;28;20020;-60
2023/03/19 04:14:14;;;;;;;5.07;2.00;;;;;;;;;;5130207;28;20016;-60
2023/03/19 04:16:42;;;;;;;2.13;1.10;;;;;;;;;;5130088;28;20034;-60
2023/03/19 04:19:09;;;;;;;1.03;0.90;;;;;;;;;;5129739;28;20155;-60
2023/03/19 04:21:36;;;;;;;2.67;1.60;;;;;;;;;;5124145;28;20423;-60
2023/03/19 04:24:03;;;;;;;4.90;2.00;;;;;;;;;;5124783;28;20015;-61
2023/03/19 04:26:30;;;;;;;4.13;1.37;;;;;;;;;;5124568;28;20034;-60
2023/03/19 04:28:58;;;;;;;2.57;1.60;;;;;;;;;;5124570;28;20032;-60
2023/03/19 04:31:24;;;;;;;2.10;1.50;;;;;;;;;;5129119;28;20047;-60
2023/03/19 04:33:51;;;;;;;2.83;1.80;;;;;;;;;;5129842;28;20066;-60
2023/03/19 04:36:18;;;;;;;1.63;1.20;;;;;;;;;;5129989;28;20029;-60
2023/03/19 04:38:45;;;;;;;3.23;1.93;;;;;;;;;;5129132;28;20454;-60
2023/03/19 04:41:14;;;;;;;2.03;1.30;;;;;;;;;;5129787;28;20043;-60
2023/03/19 04:43:41;;;;;;;2.40;1.20;;;;;;;;;;5124077;28;20020;-60
2023/03/19 04:46:08;;;;;;;1.37;0.80;;;;;;;;;;5124365;28;20117;-61
2023/03/19 04:48:35;;;;;;;2.57;1.57;;;;;;;;;;5105529;28;20027;-61
2023/03/19 04:51:02;;;;;;;1.33;0.87;;;;;;;;;;5124225;28;20034;-61
2023/03/19 04:53:29;;;;;;;2.70;1.43;;;;;;;;;;5128317;28;20034;-60
2023/03/19 04:55:56;;;;;;;1.43;1.03;;;;;;;;;;5127747;28;20546;-61
2023/03/19 04:58:23;;;;;;;2.80;1.53;;;;;;;;;;5115475;28;20512;-60
2023/03/19 05:00:50;;;;;;;1.47;0.83;;;;;;;;;;5115429;28;20036;-60
2023/03/19 05:03:17;;;;;;;1.87;1.20;;;;;;;;;;5115351;28;20035;-60
2023/03/19 05:05:43;;;;;;;1.23;0.93;;;;;;;;;;5111148;28;20362;-60
2023/03/19 05:08:10;;;;;;;0.80;0.80;;;;;;;;;;5110297;28;20016;-60
2023/03/19 05:10:37;;;;;;;3.50;1.70;;;;;;;;;;5110225;28;20031;-60
2023/03/19 05:13:04;;;;;;;2.80;1.43;;;;;;;;;;5110188;28;20464;-60
2023/03/19 05:15:31;;;;;;;2.97;1.67;;;;;;;;;;5113469;28;20044;-60
2023/03/19 05:17:57;;;;;;;2.20;1.10;;;;;;;;;;5115000;28;20035;-60
2023/03/19 05:20:24;;;;;;;9.43;2.53;;;;;;;;;;5115355;28;20470;-61
2023/03/19 05:22:54;;;;;;;7.20;1.67;;;;;;;;;;5115226;28;20023;-60
2023/03/19 05:25:20;;;;;;;2.73;1.60;;;;;;;;;;5114767;28;20039;-60
2023/03/19 05:27:47;;;;;;;0.63;0.50;;;;;;;;;;5111124;28;20427;-61
2023/03/19 05:30:14;;;;;;;2.03;1.03;;;;;;;;;;5110002;28;20020;-60
2023/03/19 05:32:41;;;;;;;2.10;1.70;;;;;;;;;;5109837;28;20027;-60
2023/03/19 05:35:08;;;;;;;1.27;0.90;;;;;;;;;;5109634;28;20076;-61
2023/03/19 05:37:35;;;;;;;1.57;1.00;;;;;;;;;;5112585;28;20469;-60
2023/03/19 05:40:02;;;;;;;2.20;1.37;;;;;;;;;;5114577;28;20453;-60
2023/03/19 05:42:28;;;;;;;3.47;2.33;;;;;;;;;;5114903;28;20023;-60
2023/03/19 05:44:55;;;;;;;25.90;2.40;;;;;;;;;;5114443;28;20108;-60
2023/03/19 05:47:22;;;;;;;1.57;1.27;;;;;;;;;;5114853;28;20020;-60
2023/03/19 05:49:48;;;;;;;1.77;0.97;;;;;;;;;;5111758;28;20151;-60
2023/03/19 05:52:15;;;;;;;1.30;1.00;;;;;;;;;;5109504;28;20072;-61
2023/03/19 05:54:42;;;;;;;2.60;1.77;;;;;;;;;;5096543;28;20028;-60
2023/03/19 05:57:09;;;;;;;2.43;1.70;;;;;;;;;;5108369;28;20579;-60
2023/03/19 05:59:36;;;;;;;2.80;1.90;;;;;;;;;;5111323;28;20024;-60
2023/03/19 06:02:02;;;;;;;2.47;1.87;;;;;;;;;;5114208;28;20024;-60
2023/03/19 06:04:29;;;;;;;1.50;1.10;;;;;;;;;;5114290;28;20019;-60
2023/03/19 06:06:56;;;;;;;15.27;2.60;;;;;;;;;;5114450;28;20466;-59
2023/03/19 06:09:22;;;;;;;3.00;2.13;;;;;;;;;;5113342;28;20031;-60
2023/03/19 06:11:49;;;;;;;3.40;2.47;;;;;;;;;;5111633;28;20076;-61
2023/03/19 06:14:16;;;;;;;4.90;1.80;;;;;;;;;;5089866;28;20034;-60
2023/03/19 06:16:43;;;;;;;4.43;1.50;;;;;;;;;;5108888;28;20129;-61
2023/03/19 06:19:10;;;;;;;2.13;1.63;;;;;;;;;;5108798;28;20024;-60
2023/03/19 06:21:36;;;;;;;1.10;1.00;;;;;;;;;;5110556;28;20024;-60
2023/03/19 06:24:03;;;;;;;7.03;2.37;;;;;;;;;;5113818;28;20115;-60
2023/03/19 06:26:30;;;;;;;5.80;2.27;;;;;;;;;;5113984;28;20023;-60
2023/03/19 06:28:56;;;;;;;1.73;1.33;;;;;;;;;;5113945;28;20397;-61
2023/03/19 06:31:23;;;;;;;3.00;1.37;;;;;;;;;;5113553;28;20045;-60
2023/03/19 06:33:50;;;;;;;2.60;1.80;;;;;;;;;;5111951;28;20184;-60
2023/03/19 06:36:17;;;;;;;2.80;1.80;;;;;;;;;;5108502;28;20144;-60
2023/03/19 06:38:44;;;;;;;0.90;0.70;;;;;;;;;;5108402;28;20155;-61
2023/03/19 06:41:10;;;;;;;4.33;2.40;;;;;;;;;;5108559;28;20461;-60
2023/03/19 06:43:40;;;;;;;3.03;1.87;;;;;;;;;;5109395;28;20030;-60
2023/03/19 06:46:07;;;;;;;3.67;1.80;;;;;;;;;;5113305;28;20028;-60
2023/03/19 06:48:35;;;;;;;1.37;1.20;;;;;;;;;;5113162;28;20081;-60
2023/03/19 06:51:02;;;;;;;5.37;2.57;;;;;;;;;;5092890;28;20089;-60
2023/03/19 06:53:28;;;;;;;2.10;1.27;;;;;;;;;;5092533;28;20024;-60
2023/03/19 06:55:55;;;;;;;1.80;1.40;;;;;;;;;;5091423;28;20016;-61
2023/03/19 06:58:22;;;;;;;2.27;1.60;;;;;;;;;;5087575;28;20389;-60
2023/03/19 07:00:48;;;;;;;2.73;1.90;;;;;;;;;;5071675;28;20020;-60
2023/03/19 07:03:15;;;;;;;1.97;1.40;;;;;;;;;;5107926;28;20030;-59
2023/03/19 07:05:42;;;;;;;3.60;2.73;;;;;;;;;;5108473;28;20481;-59
2023/03/19 07:08:10;;;;;;;2.47;1.90;;;;;;;;;;5113227;28;20052;-60
2023/03/19 07:10:40;;;;;;;2.00;1.53;;;;;;;;;;5112685;28;20016;-60
2023/03/19 07:13:07;;;;;;;3.57;2.37;;;;;;;;;;5113186;28;20120;-60
2023/03/19 07:15:35;;;;;;;2.97;1.73;;;;;;;;;;5112985;28;20355;-60
2023/03/19 07:18:02;;;;;;;6.53;2.30;;;;;;;;;;5111506;28;20031;-60
2023/03/19 07:20:29;;;;;;;3.80;2.37;;;;;;;;;;5107369;28;20080;-60
2023/03/19 07:22:55;;;;;;;3.33;1.60;;;;;;;;;;5107616;28;20099;-60
2023/03/19 07:25:22;;;;;;;3.40;2.47;;;;;;;;;;5107452;28;20468;-60
2023/03/19 07:27:49;;;;;;;4.03;2.50;;;;;;;;;;5107488;28;20040;-60
2023/03/19 07:30:15;;;;;;;2.77;1.80;;;;;;;;;;5112935;28;20754;-60
2023/03/19 07:32:42;;;;;;;2.10;1.50;;;;;;;;;;5112809;28;20377;-60
2023/03/19 07:35:09;;;;;;;2.30;1.77;;;;;;;;;;5112840;28;20019;-60
2023/03/19 07:37:36;;;;;;;1.93;1.33;;;;;;;;;;5112879;28;20019;-60
2023/03/19 07:40:04;;;;;;;3.00;2.00;;;;;;;;;;5112297;28;20102;-60
2023/03/19 07:42:30;;;;;;;2.17;1.63;;;;;;;;;;5107132;28;20030;-60
2023/03/19 07:44:57;;;;;;;4.23;1.93;;;;;;;;;;5107158;28;20115;-60
2023/03/19 07:47:24;;;;;;;1.77;1.33;;;;;;;;;;5107089;28;20027;-60
2023/03/19 07:49:50;;;;;;;6.73;2.17;;;;;;;;;;5107101;28;20028;-60
2023/03/19 07:52:18;;;;;;;3.03;2.10;;;;;;;;;;5112569;28;20465;-59
2023/03/19 07:54:44;;;;;;;1.80;1.50;;;;;;;;;;5112568;28;20102;-60
2023/03/19 07:57:11;;;;;;;2.67;2.10;;;;;;;;;;5112350;28;20035;-60
2023/03/19 07:59:38;;;;;;;3.80;2.40;;;;;;;;;;5112175;28;20115;-60
2023/03/19 08:02:05;;;;;;;2.20;1.70;;;;;;;;;;5112367;28;20020;-60
2023/03/19 08:04:32;;;;;;;2.87;1.97;;;;;;;;;;5106548;28;20034;-60
2023/03/19 08:06:59;;;;;;;3.23;2.30;;;;;;;;;;5107170;28;20031;-59
2023/03/19 08:09:26;;;;;;;3.40;1.93;;;;;;;;;;5107194;28;20059;-60
2023/03/19 08:11:53;;;;;;;2.80;1.57;;;;;;;;;;5107230;28;20429;-60
2023/03/19 08:14:21;;;;;;;1.80;1.30;;;;;;;;;;5111795;28;20069;-60
2023/03/19 08:16:48;;;;;;;2.27;1.63;;;;;;;;;;5111794;28;20095;-60
2023/03/19 08:19:15;;;;;;;2.23;1.43;;;;;;;;;;5112064;28;20054;-59
2023/03/19 08:21:42;;;;;;;2.60;1.57;;;;;;;;;;5112396;28;20481;-59
2023/03/19 08:24:09;;;;;;;1.90;1.20;;;;;;;;;;5112426;28;20110;-59
2023/03/19 08:26:36;;;;;;;1.60;1.20;;;;;;;;;;5107428;28;20032;-60
2023/03/19 08:29:03;;;;;;;1.97;1.53;;;;;;;;;;5107211;28;20039;-60
2023/03/19 08:31:30;;;;;;;3.10;2.20;;;;;;;;;;5107505;28;20135;-60
2023/03/19 08:33:59;;;;;;;3.03;2.00;;;;;;;;;;5110627;28;20019;-60
2023/03/19 08:36:28;;;;;;;2.33;1.77;;;;;;;;;;5114471;28;20043;-59
2023/03/19 08:38:55;;;;;;;1.93;1.40;;;;;;;;;;5097592;28;20026;-59
2023/03/19 08:41:22;;;;;;;3.30;2.13;;;;;;;;;;5116292;28;20023;-59
2023/03/19 08:43:49;;;;;;;3.33;2.00;;;;;;;;;;5116140;28;20102;-59
2023/03/19 08:46:16;;;;;;;1.97;1.40;;;;;;;;;;5116050;28;20038;-59
2023/03/19 08:48:43;;;;;;;4.67;1.47;;;;;;;;;;5111036;28;20102;-60
2023/03/19 08:51:10;;;;;;;2.77;1.33;;;;;;;;;;5110559;28;20027;-60
2023/03/19 08:53:37;;;;;;;2.53;1.70;;;;;;;;;;5110053;28;20033;-59
2023/03/19 08:56:06;;;;;;;1.43;1.13;;;;;;;;;;5110259;28;20039;-59
2023/03/19 08:58:33;;;;;;;2.87;1.40;;;;;;;;;;5114325;28;20046;-59
2023/03/19 09:01:08;;;;;;;3.70;2.13;;;;;;;;;;5116151;28;20020;-59
2023/03/19 09:03:35;;;;;;;3.67;2.63;;;;;;;;;;5115395;28;20482;-59
2023/03/19 09:06:02;;;;;;;2.13;1.53;;;;;;;;;;5115672;28;20041;-59
2023/03/19 09:08:29;;;;;;;2.43;1.57;;;;;;;;;;5115609;28;20081;-59
2023/03/19 09:10:56;;;;;;;2.57;2.03;;;;;;;;;;5092390;28;20408;-59
2023/03/19 09:13:24;;;;;;;7.47;1.50;;;;;;;;;;5110351;28;20521;-59
2023/03/19 09:15:51;;;;;;;2.20;1.70;;;;;;;;;;5109953;28;20027;-59
2023/03/19 09:18:19;;;;;;;4.03;1.97;;;;;;;;;;5109976;28;20519;-59
2023/03/19 09:20:46;;;;;;;2.30;1.53;;;;;;;;;;5113587;28;20070;-59
2023/03/19 09:23:13;;;;;;;3.57;1.77;;;;;;;;;;5115272;28;20031;-60
2023/03/19 09:25:40;;;;;;;4.10;2.27;;;;;;;;;;5115012;28;20431;-60
2023/03/19 09:28:06;;;;;;;2.13;1.63;;;;;;;;;;5115048;28;20047;-60
2023/03/19 09:30:33;;;;;;;3.90;2.00;;;;;;;;;;5114955;28;20027;-59
2023/03/19 09:33:00;;;;;;;2.33;1.50;;;;;;;;;;5111109;28;20520;-59
2023/03/19 09:35:30;;;;;;;2.83;1.97;;;;;;;;;;5090514;28;20059;-60
2023/03/19 09:38:00;;;;;;;2.03;1.60;;;;;;;;;;5109615;28;20420;-59
2023/03/19 09:40:47;;;;;;;2.73;2.00;;;;;;;;;;5109535;28;20592;-59
2023/03/19 09:43:29;;;;;;;2.63;1.63;;;;;;;;;;5113352;28;20016;-60
2023/03/19 09:45:56;;;;;;;2.47;1.60;;;;;;;;;;5114281;28;20082;-59
2023/03/19 09:48:41;;;;;;;2.20;1.70;;;;;;;;;;5114744;28;20024;-60
2023/03/19 09:51:14;;;;;;;1.80;1.35;;;;;;;;;;5114651;28;20020;-59
2023/03/19 09:53:52;;;;;;;1.67;1.40;;;;;;;;;;5113996;28;20075;-59
2023/03/19 09:56:19;;;;;;;5.73;1.50;;;;;;;;;;5109113;28;20382;-59
2023/03/19 09:58:46;;;;;;;2.03;1.50;;;;;;;;;;5109363;28;20081;-59
2023/03/19 10:01:23;;;;;;;2.43;1.90;;;;;;;;;;5108708;28;20032;-59
2023/03/19 10:03:50;;;;;;;2.13;1.70;;;;;;;;;;5109331;28;20416;-60
2023/03/19 10:06:34;;;;;;;3.50;2.23;;;;;;;;;;5113893;28;20426;-59
2023/03/19 10:09:16;;;;;;;4.33;2.23;;;;;;;;;;5114557;28;20099;-59
2023/03/19 10:11:51;;;;;;;2.13;1.37;;;;;;;;;;5114372;28;20551;-59
2023/03/19 10:14:18;;;;;;;1.30;1.13;;;;;;;;;;5113886;28;20046;-59
2023/03/19 10:16:47;;;;;;;1.83;1.50;;;;;;;;;;5111569;28;20105;-59
2023/03/19 10:19:17;;;;;;;4.63;1.63;;;;;;;;;;5108705;28;20023;-59
2023/03/19 10:21:45;;;;;;;3.50;2.43;;;;;;;;;;5108751;28;20077;-59
2023/03/19 10:24:11;;;;;;;2.50;1.93;;;;;;;;;;5108770;28;20035;-60
2023/03/19 10:26:38;;;;;;;3.30;2.10;;;;;;;;;;5110251;28;20060;-59
2023/03/19 10:29:17;;;;;;;3.77;2.40;;;;;;;;;;5113536;28;20024;-59
2023/03/19 10:32:03;;;;;;;5.57;3.37;;;;;;;;;;5113872;28;20019;-59
2023/03/19 10:34:34;;;;;;;3.27;2.40;;;;;;;;;;5112523;28;20019;-59
2023/03/19 10:37:02;;;;;;;4.00;2.87;;;;;;;;;;5113716;28;20020;-60
2023/03/19 10:39:33;;;;;;;4.33;2.50;;;;;;;;;;5110392;28;20039;-59
2023/03/19 10:42:19;;;;;;;4.47;2.33;;;;;;;;;;5108088;28;20485;-60
2023/03/19 10:44:51;;;;;;;1.95;1.35;;;;;;;;;;5108193;28;20015;-59
2023/03/19 10:47:21;;;;;;;2.53;1.73;;;;;;;;;;5108115;28;20034;-59
2023/03/19 10:49:50;;;;;;;2.70;2.30;;;;;;;;;;5111527;28;20077;-59
2023/03/19 10:52:37;;;;;;;3.07;2.30;;;;;;;;;;5113665;28;20106;-59
2023/03/19 10:55:15;;;;;;;3.20;2.43;;;;;;;;;;5112923;28;20488;-59
2023/03/19 10:57:45;;;;;;;3.23;2.17;;;;;;;;;;5113002;28;20047;-59
2023/03/19 11:00:17;;;;;;;2.50;2.20;;;;;;;;;;5113236;28;20027;-59
2023/03/19 11:02:52;;;;;;;3.20;2.17;;;;;;;;;;5107933;28;20377;-59
2023/03/19 11:05:27;;;;;;;4.20;2.57;;;;;;;;;;5107839;28;20039;-59
2023/03/19 11:07:58;;;;;;;3.72;2.40;;;;;;;;;;5107372;28;20486;-59
2023/03/19 11:10:26;;;;;;;3.23;2.40;;;;;;;;;;5107685;28;20131;-59
2023/03/19 11:12:56;;;;;;;3.07;1.83;;;;;;;;;;5113094;28;20047;-60
2023/03/19 11:15:26;;;;;;;3.17;2.20;;;;;;;;;;5113121;28;20077;-60
2023/03/19 11:17:57;;;;;;;4.00;2.33;;;;;;;;;;5113108;28;20038;-59
2023/03/19 11:20:25;;;;;;;3.23;2.37;;;;;;;;;;5112569;28;20252;-59
2023/03/19 11:22:52;;;;;;;2.67;2.03;;;;;;;;;;5112038;28;20745;-59
2023/03/19 11:25:19;;;;;;;2.20;1.80;;;;;;;;;;5107910;28;20701;-59
2023/03/19 11:27:57;;;;;;;1.90;1.60;;;;;;;;;;5107704;28;20553;-59
2023/03/19 11:30:24;;;;;;;3.27;1.97;;;;;;;;;;5107576;28;20750;-59
2023/03/19 11:32:57;;;;;;;3.93;2.63;;;;;;;;;;5107762;28;20766;-59
2023/03/19 11:35:27;;;;;;;2.23;1.57;;;;;;;;;;5112949;28;20312;-59
2023/03/19 11:37:55;;;;;;;3.00;1.90;;;;;;;;;;5112668;28;20035;-59
2023/03/19 11:40:31;;;;;;;12.57;2.10;;;;;;;;;;5112664;28;20749;-60
2023/03/19 11:43:16;;;;;;;1.90;1.50;;;;;;;;;;5094267;28;20263;-59
2023/03/19 11:45:53;;;;;;;1.67;1.38;;;;;;;;;;5110581;28;20097;-59
2023/03/19 11:48:38;;;;;;;2.67;1.90;;;;;;;;;;5107294;28;20126;-59
2023/03/19 11:51:04;;;;;;;2.17;1.65;;;;;;;;;;5107312;28;20028;-59
2023/03/19 11:53:35;;;;;;;3.43;2.13;;;;;;;;;;5107369;28;20035;-59
2023/03/19 11:56:02;;;;;;;2.57;2.00;;;;;;;;;;5109410;28;20355;-59
2023/03/19 11:58:38;;;;;;;5.13;2.73;;;;;;;;;;5094103;28;20260;-59
2023/03/19 12:01:20;;;;;;;2.47;1.67;;;;;;;;;;5112717;28;20024;-59
2023/03/19 12:04:19;;;;;;;2.47;2.00;;;;;;;;;;5112400;28;20244;-59
2023/03/19 12:06:48;;;;;;;4.77;2.47;;;;;;;;;;5068788;28;20307;-59
2023/03/19 12:09:27;;;;;;;2.80;1.80;;;;;;;;;;5111933;28;20260;-59
2023/03/19 12:11:54;;;;;;;2.27;1.80;;;;;;;;;;5111388;28;20083;-59
2023/03/19 12:14:27;;;;;;;2.10;1.70;;;;;;;;;;5111261;28;20302;-59
2023/03/19 12:17:03;;;;;;;2.00;1.70;;;;;;;;;;5110995;28;20256;-59
2023/03/19 12:19:38;;;;;;;2.63;1.60;;;;;;;;;;5115782;28;20678;-59
2023/03/19 12:22:25;;;;;;;3.13;2.03;;;;;;;;;;5116511;28;20338;-59
2023/03/19 12:24:57;;;;;;;5.93;2.37;;;;;;;;;;5115994;28;20020;-59
2023/03/19 12:27:24;;;;;;;4.73;2.17;;;;;;;;;;5116427;28;20264;-59
2023/03/19 12:30:01;;;;;;;6.50;2.97;;;;;;;;;;5114736;28;20260;-60
2023/03/19 12:32:50;;;;;;;2.87;2.30;;;;;;;;;;5110636;28;20279;-59
2023/03/19 12:35:18;;;;;;;4.53;2.73;;;;;;;;;;5110503;28;20778;-59
2023/03/19 12:37:50;;;;;;;3.97;2.40;;;;;;;;;;5110660;28;20254;-59
2023/03/19 12:40:32;;;;;;;2.63;2.27;;;;;;;;;;5112350;28;20698;-59
2023/03/19 12:42:59;;;;;;;1.63;1.33;;;;;;;;;;5115830;28;20260;-59
2023/03/19 12:45:32;;;;;;;1.97;1.70;;;;;;;;;;5097386;28;20341;-59
2023/03/19 12:48:02;;;;;;;2.67;2.00;;;;;;;;;;5115676;28;20812;-59
2023/03/19 12:50:30;;;;;;;2.57;1.93;;;;;;;;;;5115378;28;20256;-60
2023/03/19 12:52:58;;;;;;;2.47;2.00;;;;;;;;;;5092359;28;20268;-59
2023/03/19 12:55:43;;;;;;;5.40;2.70;;;;;;;;;;5089881;28;20111;-59
2023/03/19 12:58:33;;;;;;;5.63;2.83;;;;;;;;;;5089569;28;20288;-59
2023/03/19 13:01:06;;;;;;;2.63;2.20;;;;;;;;;;5084074;28;20074;-59
2023/03/19 13:03:43;;;;;;;1.90;1.53;;;;;;;;;;5093862;28;20261;-59
2023/03/19 13:06:10;;;;;;;3.03;2.10;;;;;;;;;;5094814;28;20321;-59
2023/03/19 13:08:50;;;;;;;3.60;2.73;;;;;;;;;;5101785;28;20134;-59
2023/03/19 13:11:20;;;;;;;4.97;3.30;;;;;;;;;;5115288;28;20248;-59
2023/03/19 13:13:47;;;;;;;3.80;2.73;;;;;;;;;;5115050;28;20034;-59
2023/03/19 13:16:34;;;;;;;2.40;2.07;;;;;;;;;;5109996;28;20059;-59
2023/03/19 13:19:16;;;;;;;4.57;2.63;;;;;;;;;;5067876;28;20039;-58
2023/03/19 13:21:45;;;;;;;4.33;1.90;;;;;;;;;;5109777;28;20027;-58
2023/03/19 13:24:17;;;;;;;4.10;2.83;;;;;;;;;;5110213;28;20061;-59
2023/03/19 13:26:44;;;;;;;2.97;2.50;;;;;;;;;;5114224;28;20050;-59
2023/03/19 13:29:18;;;;;;;3.33;2.57;;;;;;;;;;5114801;28;20028;-59
2023/03/19 13:31:45;;;;;;;4.67;2.80;;;;;;;;;;5114723;28;20498;-59
2023/03/19 13:34:19;;;;;;;2.57;1.87;;;;;;;;;;5114247;28;20028;-60
2023/03/19 13:36:53;;;;;;;2.93;2.03;;;;;;;;;;5113502;28;20077;-59
2023/03/19 13:39:21;;;;;;;2.73;1.87;;;;;;;;;;5109071;28;20067;-59
2023/03/19 13:41:48;;;;;;;3.63;2.07;;;;;;;;;;5109305;28;20070;-59
2023/03/19 13:44:27;;;;;;;3.97;1.83;;;;;;;;;;5109163;28;20030;-60
2023/03/19 13:46:53;;;;;;;2.23;1.67;;;;;;;;;;5110764;28;20039;-60
2023/03/19 13:49:26;;;;;;;5.27;3.23;;;;;;;;;;5114608;28;20054;-60
2023/03/19 13:51:59;;;;;;;3.87;2.53;;;;;;;;;;5114043;28;20062;-60
2023/03/19 13:54:33;;;;;;;1.17;1.03;;;;;;;;;;5114280;28;20378;-60
2023/03/19 13:57:01;;;;;;;2.60;1.95;;;;;;;;;;5114545;28;20065;-60
2023/03/19 13:59:29;;;;;;;1.57;1.43;;;;;;;;;;5093506;28;20031;-60
2023/03/19 14:01:56;;;;;;;2.27;1.40;;;;;;;;;;5090416;28;20020;-61
2023/03/19 14:04:26;;;;;;;5.13;2.10;;;;;;;;;;5108584;28;20051;-61
2023/03/19 14:06:55;;;;;;;6.20;3.87;;;;;;;;;;5108961;28;20053;-60
2023/03/19 14:09:48;;;;;;;2.87;1.87;;;;;;;;;;5110919;28;20028;-60
2023/03/19 14:12:17;;;;;;;2.83;1.70;;;;;;;;;;5111755;28;20089;-61
2023/03/19 14:14:48;;;;;;;2.07;1.37;;;;;;;;;;5113817;28;20015;-61
2023/03/19 14:17:16;;;;;;;2.27;1.57;;;;;;;;;;5114134;28;20030;-60
2023/03/19 14:19:43;;;;;;;4.90;1.90;;;;;;;;;;5113952;28;20076;-60
2023/03/19 14:22:18;;;;;;;3.17;1.97;;;;;;;;;;5110636;28;20031;-61
2023/03/19 14:25:07;;;;;;;1.50;1.20;;;;;;;;;;5108777;28;20023;-60
2023/03/19 14:27:35;;;;;;;2.43;1.83;;;;;;;;;;5099175;28;20035;-60
2023/03/19 14:30:08;;;;;;;2.97;1.90;;;;;;;;;;5108653;28;20032;-60
2023/03/19 14:32:40;;;;;;;3.03;2.10;;;;;;;;;;5113738;28;20127;-60
2023/03/19 14:35:08;;;;;;;3.53;2.23;;;;;;;;;;5115079;28;20020;-60
2023/03/19 14:37:38;;;;;;;3.63;1.80;;;;;;;;;;5117039;28;20093;-60
2023/03/19 14:40:10;;;;;;;2.40;1.37;;;;;;;;;;5114424;28;20031;-60
2023/03/19 14:42:55;;;;;;;11.57;1.97;;;;;;;;;;5114001;28;20027;-60
2023/03/19 14:45:22;;;;;;;;;;;;;;;;;;5108143;28;20030;-60
2023/03/19 14:48:01;;;;;;;2.87;1.40;;;;;;;;;;5107998;28;20018;-61
2023/03/19 14:50:39;;;;;;;4.87;2.27;;;;;;;;;;5108424;28;20031;-60
2023/03/19 14:53:16;;;;;;;2.37;1.53;;;;;;;;;;5110146;28;20110;-60
2023/03/19 14:55:43;;;;;;;6.10;2.00;;;;;;;;;;5114981;28;20093;-59
2023/03/19 14:58:12;;;;;;;5.37;2.33;;;;;;;;;;5114216;28;20023;-59
2023/03/19 15:00:47;;;;;;;3.10;1.60;;;;;;;;;;5113613;28;20074;-60
2023/03/19 15:03:23;;;;;;;1.80;1.35;;;;;;;;;;5113115;28;20043;-60
2023/03/19 15:05:51;;;;;;;1.40;0.87;;;;;;;;;;5111181;28;20031;-60
2023/03/19 15:08:22;;;;;;;3.30;2.03;;;;;;;;;;5107257;28;20109;-61